Terminal Aerodrome Forecast
Issued by NWS Louisville, KY

Home | Current Version | Previous Version | Text Only | Print | Product List | Glossary On
Versions: 1 2 3 4 5 6 7 8 9 10 11 12 13 14 15
000
FTUS43 KLMK 012300
TAFLEX
TAF
KLEX 012324Z 0200/0224 28007KT 1SM -DZ BR OVC003
     FM020600 31007KT 2SM BR VCSH BKN009
     FM020900 33005KT 3SM BR BKN015
     FM021500 03005KT P6SM SCT020 SCT100=

USA.gov is the U.S. government's official web portal to all federal, state and local government web resources and services.